Atlantic - Newfoundland: Past 24 Hour Conditions

 

Nickerson Bank - 44251

04:00 PM AST 26 November 2014Buoy position: 46.45N 53.38W
This table is a summary of hourly weather conditions for the past 24 hours.
Date / Time
(AST)
Wind(knots) Wave height(m) Wave period(s) Pressure(kPa) Air tempC) Water tempC)
26 November 2014
16:00 W 16 gust 19 2.9 11.0 102.0 6 7
15:00 W 18 gust 21 3.3 11.0 102.0 6 7
14:00 N/A N/A N/A N/A N/A N/A
13:00 W 23 gust 27 3.2 10.0 101.7 7 7
12:00 WSW 18 gust 21 3.1 11.0 101.7 6 7
11:00 W 21 gust 25 3.2 10.0 101.7 7 7
10:00 W 21 gust 25 3.0 11.0 101.7 7 7
9:00 W 18 gust 23 3.0 10.0 101.6 7 7
8:00 W 16 gust 19 3.0 10.0 101.5 6 7
7:00 W 16 gust 19 3.3 10.0 101.4 6 6
6:00 WSW 18 gust 19 3.1 11.0 101.3 6 6
5:00 W 18 gust 21 3.3 10.0 101.2 6 6
4:00 WSW 18 gust 23 3.4 10.0 101.2 7 6
3:00 WSW 18 gust 21 3.5 10.0 101.1 7 6
2:00 N/A N/A N/A N/A N/A N/A
1:00 WSW 21 gust 25 3.7 10.0 101.0 8 6
0:00 SW 19 gust 25 3.8 10.0 101.0 8 7
25 November 2014
23:00 SW 18 gust 19 3.6 10.0 101.0 8 6
22:00 SW 21 gust 25 3.9 10.0 101.0 8 7
21:00 SW 18 gust 21 3.8 10.0 101.0 8 7
20:00 SW 21 gust 25 4.0 10.0 101.0 8 6
19:00 SW 23 gust 29 4.0 8.0 101.1 9 6
18:00 SW 23 gust 29 3.8 10.0 101.1 9 7
17:00 SW 21 gust 25 3.9 10.0 101.1 9 7
16:00 SW 21 gust 25 4.1 9.0 101.1 9 6
 
Map of Atlantic - Newfoundland marine weather areas Southwestern Grand Banks - 44138 Banquereau - 44139 Tail of the Bank - 44140 Nickerson Bank - 44251 Northeast Burgeo Bank - 44255 Blanc-Sablon Airport Cap Whittle Chevery Natashquan Airport Heath Point Miscou Island Grand Étang Ingonish Beach North Mountain St.Paul Island J.A. Douglas McCurdy Sydney Airport Charlottetown Airport East Point North Cape Argentia Bonavista Burgeo Cape Race Corner Brook Daniel's Harbour Englee Ferolle Point La Scie Port aux Basques Rocky Harbour Sagona Island St. Anthony Airport St. John's Int'l Airport St. Lawrence Stephenville Airport Twillingate Winterland Wreckhouse Cartwright Airport Mary's Harbour Grates Cove Pool's Island Marticot Island Long Pond Îles de la Madeleine Airport
Legend: buoyBuoy land stationLand Station